Time;durP1;ratioP1;P1;durP2;ratioP2;P2;SDS_P1;SDS_P2;PMS_P1;PMS_P2;Temp;Humidity;BMP_temperature;BMP_pressure;BME280_temperature;BME280_humidity;BME280_pressure;Samples;Min_cycle;Max_cycle;Signal;HPM_P1;HPM_P2
2021/08/07 00:00:13;;;;;;;13.80;10.80;;;;;;;16.64;100.00;100096.28;3620140;39;20480;-50
2021/08/07 00:02:42;;;;;;;17.43;11.30;;;;;;;16.74;100.00;100105.00;3619250;39;20506;-52
2021/08/07 00:05:11;;;;;;;16.00;10.83;;;;;;;16.78;100.00;100098.97;3620205;39;20521;-49
2021/08/07 00:07:39;;;;;;;15.97;10.80;;;;;;;16.74;100.00;100102.41;3618673;39;20535;-51
2021/08/07 00:10:08;;;;;;;15.90;11.50;;;;;;;16.73;100.00;100105.88;3592378;39;20500;-51
2021/08/07 00:12:36;;;;;;;17.23;11.97;;;;;;;16.80;100.00;100101.56;3614873;39;20791;-52
2021/08/07 00:15:05;;;;;;;15.23;12.40;;;;;;;16.84;100.00;100083.38;3619707;39;20510;-48
2021/08/07 00:17:33;;;;;;;21.40;15.40;;;;;;;17.09;100.00;100086.13;3600315;39;20501;-48
2021/08/07 00:20:02;;;;;;;25.67;13.67;;;;;;;17.18;100.00;100081.81;3619809;39;20572;-53
2021/08/07 00:22:29;;;;;;;17.40;12.50;;;;;;;16.85;100.00;100079.91;3592230;39;20965;-48
2021/08/07 00:24:57;;;;;;;15.60;11.97;;;;;;;16.97;100.00;100078.22;3621109;39;20506;-50
2021/08/07 00:27:25;;;;;;;17.10;12.17;;;;;;;17.00;100.00;100068.69;3611138;39;20484;-49
2021/08/07 00:29:52;;;;;;;21.17;12.07;;;;;;;16.93;100.00;100066.03;3619004;39;20738;-53
2021/08/07 00:32:20;;;;;;;24.10;12.60;;;;;;;16.90;100.00;100071.22;3590483;39;20529;-50
2021/08/07 00:34:48;;;;;;;16.77;12.90;;;;;;;16.92;100.00;100066.91;3609137;39;20508;-47
2021/08/07 00:37:17;;;;;;;22.73;16.23;;;;;;;16.99;100.00;100066.06;3591036;39;20510;-51
2021/08/07 00:39:44;;;;;;;16.70;12.00;;;;;;;16.78;100.00;100067.72;3589505;39;20507;-52
2021/08/07 00:42:12;;;;;;;20.13;12.43;;;;;;;16.61;100.00;100065.00;3588920;39;20502;-48
2021/08/07 00:44:40;;;;;;;29.23;18.00;;;;;;;16.76;100.00;100065.97;3609276;39;20496;-51
2021/08/07 00:47:07;;;;;;;14.17;11.23;;;;;;;16.65;100.00;100069.38;3609125;39;20500;-49
2021/08/07 00:49:35;;;;;;;16.37;11.60;;;;;;;16.49;100.00;100065.78;3590253;39;20822;-51
2021/08/07 00:52:03;;;;;;;14.40;10.77;;;;;;;16.51;100.00;100069.28;3616558;39;20496;-48
2021/08/07 00:54:32;;;;;;;14.70;10.63;;;;;;;16.45;100.00;100074.44;3611059;39;20491;-51
2021/08/07 00:56:59;;;;;;;12.67;10.57;;;;;;;16.41;100.00;100067.50;3614782;39;20775;-48
2021/08/07 00:59:27;;;;;;;15.67;10.43;;;;;;;16.38;100.00;100070.94;3621568;39;20501;-51
2021/08/07 01:01:57;;;;;;;13.33;11.10;;;;;;;16.27;100.00;100070.88;3617637;39;20487;-49
2021/08/07 01:04:27;;;;;;;13.83;9.93;;;;;;;16.24;100.00;100072.56;3594224;39;20499;-50
2021/08/07 01:07:00;;;;;;;12.67;9.83;;;;;;;16.33;100.00;100076.13;3612779;39;20534;-48
2021/08/07 01:09:34;;;;;;;12.37;9.53;;;;;;;16.22;100.00;100072.56;3602832;39;20822;-48
2021/08/07 01:12:09;;;;;;;12.50;9.67;;;;;;;16.23;100.00;100069.09;3620953;39;20536;-46
2021/08/07 01:14:38;;;;;;;10.90;8.90;;;;;;;16.12;100.00;100070.72;3621712;39;20494;-46
2021/08/07 01:17:10;;;;;;;13.13;9.10;;;;;;;16.16;100.00;100067.31;3597575;39;20464;-52
2021/08/07 01:19:44;;;;;;;10.50;9.07;;;;;;;16.08;100.00;100062.03;3595901;39;20496;-47
2021/08/07 01:22:13;;;;;;;16.57;9.93;;;;;;;16.08;100.00;100064.63;3609276;39;20482;-50
2021/08/07 01:24:47;;;;;;;13.43;10.07;;;;;;;16.06;100.00;100061.16;3611929;39;21305;-50
2021/08/07 01:27:24;;;;;;;16.40;10.00;;;;;;;16.08;100.00;100063.75;3592564;39;20504;-49
2021/08/07 01:29:53;;;;;;;13.90;9.80;;;;;;;15.99;100.00;100065.44;3592993;39;20498;-52
2021/08/07 01:32:24;;;;;;;11.80;9.00;;;;;;;15.96;100.00;100070.63;3607750;39;20490;-51
2021/08/07 01:34:52;;;;;;;12.03;8.83;;;;;;;15.92;100.00;100071.44;3611639;39;20514;-51
2021/08/07 01:37:20;;;;;;;10.23;8.77;;;;;;;15.95;100.00;100074.09;3584208;39;20560;-47
2021/08/07 01:39:49;;;;;;;11.00;9.00;;;;;;;15.99;100.00;100073.22;3611499;39;20508;-47
2021/08/07 01:42:18;;;;;;;12.10;8.83;;;;;;;15.95;100.00;100068.00;3609580;39;20479;-51
2021/08/07 01:44:46;;;;;;;13.50;9.80;;;;;;;15.89;100.00;100071.41;3609286;39;20722;-50
2021/08/07 01:47:20;;;;;;;11.90;9.63;;;;;;;15.86;100.00;100068.75;3585712;39;20503;-45
2021/08/07 01:49:57;;;;;;;14.17;10.60;;;;;;;15.80;100.00;100074.78;3618421;39;20568;-49
2021/08/07 01:52:27;;;;;;;13.50;9.47;;;;;;;15.87;100.00;100075.69;3612170;39;20701;-51
2021/08/07 01:55:00;;;;;;;16.40;10.37;;;;;;;15.95;100.00;100070.59;3594724;39;20530;-48
2021/08/07 01:57:32;;;;;;;14.80;10.87;;;;;;;15.97;100.00;100069.75;3620960;39;20851;-48
2021/08/07 02:00:00;;;;;;;12.80;10.20;;;;;;;15.88;100.00;100067.03;3621790;39;20490;-50
2021/08/07 02:02:29;;;;;;;21.60;12.57;;;;;;;15.85;100.00;100067.00;3616933;39;20502;-51
2021/08/07 02:04:58;;;;;;;16.20;10.00;;;;;;;15.82;100.00;100069.56;3594379;39;20818;-47
2021/08/07 02:07:27;;;;;;;13.20;9.40;;;;;;;15.78;100.00;100061.75;3611859;39;20468;-49
2021/08/07 02:09:56;;;;;;;12.20;9.60;;;;;;;15.91;100.00;100065.31;3607171;39;20518;-48
2021/08/07 02:12:23;;;;;;;16.57;12.43;;;;;;;15.95;100.00;100060.19;3591987;39;20565;-51
2021/08/07 02:14:53;;;;;;;20.70;13.77;;;;;;;16.20;100.00;100063.84;3621964;39;20497;-48
2021/08/07 02:17:21;;;;;;;18.57;12.57;;;;;;;16.23;100.00;100063.88;3603681;39;20485;-50
2021/08/07 02:19:49;;;;;;;13.97;10.80;;;;;;;15.93;100.00;100061.06;3583678;39;20499;-51
2021/08/07 02:22:18;;;;;;;11.87;9.60;;;;;;;15.85;100.00;100056.59;3602691;39;20485;-48
2021/08/07 02:24:46;;;;;;;23.83;16.87;;;;;;;15.95;100.00;100063.69;3592673;39;20507;-47
2021/08/07 02:27:15;;;;;;;15.87;11.33;;;;;;;15.68;100.00;100065.13;3592690;39;20540;-53
2021/08/07 02:29:43;;;;;;;15.97;11.67;;;;;;;15.66;100.00;100064.25;3608752;39;20514;-49
2021/08/07 02:32:12;;;;;;;14.93;9.70;;;;;;;15.56;100.00;100073.69;3606939;39;20539;-51
2021/08/07 02:34:40;;;;;;;13.00;10.10;;;;;;;15.59;100.00;100065.03;3619237;39;20505;-50
2021/08/07 02:37:09;;;;;;;15.07;10.23;;;;;;;15.59;100.00;100065.03;3616390;39;20495;-49
2021/08/07 02:39:37;;;;;;;14.87;10.70;;;;;;;15.70;100.00;100063.44;3621179;39;20880;-49
2021/08/07 02:42:04;;;;;;;15.13;10.23;;;;;;;15.72;100.00;100061.69;3601301;39;20531;-50
2021/08/07 02:44:32;;;;;;;20.03;14.07;;;;;;;15.77;100.00;100060.03;3621252;39;20509;-49
2021/08/07 02:47:00;;;;;;;15.37;10.40;;;;;;;15.74;100.00;100059.13;3584578;39;20503;-49
2021/08/07 02:49:29;;;;;;;19.10;11.03;;;;;;;15.70;100.00;100060.81;3562953;40;20899;-50
2021/08/07 02:51:57;;;;;;;13.90;10.83;;;;;;;15.59;100.00;100055.50;3565252;40;20495;-46
2021/08/07 02:54:25;;;;;;;17.50;11.13;;;;;;;15.73;100.00;100058.22;3589490;40;20540;-49
2021/08/07 02:56:52;;;;;;;14.53;10.67;;;;;;;15.66;100.00;100053.84;3586351;40;20530;-48
2021/08/07 02:59:21;;;;;;;17.93;12.60;;;;;;;15.70;100.00;100053.03;3572666;40;20532;-48
2021/08/07 03:01:48;;;;;;;17.87;10.37;;;;;;;15.62;100.00;100057.25;3601216;39;20479;-50
2021/08/07 03:04:16;;;;;;;15.20;11.30;;;;;;;15.60;100.00;100059.88;3621164;39;20504;-50
2021/08/07 03:06:45;;;;;;;20.80;11.90;;;;;;;15.52;100.00;100062.38;3593788;39;20503;-48
2021/08/07 03:09:13;;;;;;;18.50;12.77;;;;;;;15.59;100.00;100065.03;3621578;39;20520;-47
2021/08/07 03:11:40;;;;;;;14.10;10.70;;;;;;;15.63;100.00;100051.19;3621045;39;20499;-51
2021/08/07 03:14:08;;;;;;;15.13;11.53;;;;;;;15.60;100.00;100056.38;3619623;39;20832;-48
2021/08/07 03:16:36;;;;;;;15.27;10.50;;;;;;;15.59;100.00;100059.84;3619470;39;20795;-51
2021/08/07 03:19:04;;;;;;;17.47;10.73;;;;;;;15.62;100.00;100055.53;3620790;39;20496;-51
2021/08/07 03:21:32;;;;;;;18.93;12.00;;;;;;;15.57;100.00;100052.03;3593635;39;20538;-48
2021/08/07 03:24:01;;;;;;;18.63;12.30;;;;;;;15.72;100.00;100053.91;3594560;39;20502;-49
2021/08/07 03:26:28;;;;;;;23.80;13.03;;;;;;;15.84;100.00;100052.28;3619967;39;20517;-49
2021/08/07 03:28:56;;;;;;;21.10;12.57;;;;;;;15.79;100.00;100047.88;3621708;39;20505;-48
2021/08/07 03:31:24;;;;;;;18.07;11.93;;;;;;;15.78;100.00;100051.34;3594059;39;20548;-51
2021/08/07 03:33:51;;;;;;;15.20;11.50;;;;;;;15.76;100.00;100047.00;3621360;39;20695;-49
2021/08/07 03:36:19;;;;;;;17.17;11.43;;;;;;;15.74;100.00;100057.38;3618088;39;20507;-51
2021/08/07 03:38:47;;;;;;;17.20;12.10;;;;;;;16.00;100.00;100051.56;3621215;39;20493;-48
2021/08/07 03:41:16;;;;;;;18.67;12.60;;;;;;;16.15;100.00;100044.75;3605511;39;20576;-50
2021/08/07 03:43:43;;;;;;;16.03;11.50;;;;;;;16.01;100.00;100032.47;3597868;39;20531;-49
2021/08/07 03:46:11;;;;;;;17.80;12.13;;;;;;;15.95;100.00;100037.66;3574713;40;20586;-47
2021/08/07 03:48:38;;;;;;;14.97;11.70;;;;;;;15.93;100.00;100042.84;3582088;40;20789;-50
2021/08/07 03:51:06;;;;;;;21.40;12.07;;;;;;;15.93;100.00;100040.25;3582595;39;20475;-52
2021/08/07 03:53:34;;;;;;;15.63;11.90;;;;;;;16.17;100.00;100045.63;3589149;40;20498;-49
2021/08/07 03:56:01;;;;;;;16.20;11.50;;;;;;;15.77;100.00;100044.41;3569619;40;20503;-53
2021/08/07 03:58:30;;;;;;;14.97;11.60;;;;;;;15.71;100.00;100059.06;3571220;40;20505;-52
2021/08/07 04:00:58;;;;;;;14.37;11.90;;;;;;;15.61;100.00;100052.91;3603089;39;20477;-51
2021/08/07 04:03:25;;;;;;;14.97;12.40;;;;;;;15.68;100.00;100059.91;3620428;39;20819;-48
2021/08/07 04:05:53;;;;;;;18.93;12.17;;;;;;;15.70;100.00;100057.34;3618422;39;20484;-49
2021/08/07 04:08:21;;;;;;;17.17;12.87;;;;;;;15.64;100.00;100051.22;3620378;39;20511;-46
2021/08/07 04:10:48;;;;;;;17.53;13.50;;;;;;;15.69;100.00;100064.25;3598451;39;20482;-52
2021/08/07 04:13:16;;;;;;;17.43;12.50;;;;;;;15.57;100.00;100072.81;3619931;39;20501;-51
2021/08/07 04:15:45;;;;;;;21.97;12.50;;;;;;;15.62;100.00;100071.13;3601673;39;20494;-46
2021/08/07 04:18:12;;;;;;;18.30;12.80;;;;;;;15.78;100.00;100061.75;3620827;39;20751;-50
2021/08/07 04:20:40;;;;;;;18.07;12.57;;;;;;;15.80;100.00;100060.03;3619746;39;20520;-48
2021/08/07 04:23:08;;;;;;;19.33;12.60;;;;;;;15.75;100.00;100066.91;3620905;39;20520;-49
2021/08/07 04:25:35;;;;;;;23.10;13.57;;;;;;;15.71;100.00;100070.38;3618800;39;20504;-49
2021/08/07 04:28:04;;;;;;;18.43;13.03;;;;;;;15.73;100.00;100072.94;3620468;39;20511;-50
2021/08/07 04:30:31;;;;;;;19.30;13.40;;;;;;;15.77;100.00;100062.63;3591756;39;20509;-48
2021/08/07 04:33:00;;;;;;;18.13;13.37;;;;;;;15.78;100.00;100072.16;3601219;39;20604;-50
2021/08/07 04:35:28;;;;;;;20.60;13.30;;;;;;;15.71;100.00;100077.28;3612736;39;20498;-52
2021/08/07 04:37:57;;;;;;;20.83;13.90;;;;;;;15.84;100.00;100070.47;3619834;39;20591;-51
2021/08/07 04:40:26;;;;;;;19.07;13.27;;;;;;;15.87;100.00;100065.28;3613551;39;20514;-51
2021/08/07 04:42:53;;;;;;;23.93;14.23;;;;;;;15.85;100.00;100061.81;3619889;39;20497;-48
2021/08/07 04:45:27;;;;;;;19.43;14.10;;;;;;;15.83;100.00;100073.94;3620243;39;20494;-47
2021/08/07 04:47:59;;;;;;;19.90;14.30;;;;;;;15.93;100.00;100071.47;3620802;39;20481;-48
2021/08/07 04:50:30;;;;;;;19.87;14.40;;;;;;;15.97;100.00;100077.56;3620281;39;20514;-51
2021/08/07 04:52:57;;;;;;;23.53;15.30;;;;;;;16.02;100.00;100073.28;3620564;39;20500;-47
2021/08/07 04:55:30;;;;;;;22.70;14.47;;;;;;;16.11;100.00;100079.41;3617503;39;20497;-50
2021/08/07 04:57:57;;;;;;;18.73;14.00;;;;;;;16.36;100.00;100079.59;3612540;39;20778;-49
2021/08/07 05:00:25;;;;;;;34.97;26.07;;;;;;;16.35;100.00;100078.72;3620402;39;20499;-50
2021/08/07 05:02:52;;;;;;;24.73;18.17;;;;;;;16.39;100.00;100077.00;3609516;39;20491;-51
2021/08/07 05:05:21;;;;;;;19.90;14.07;;;;;;;16.29;100.00;100076.94;3602258;39;20492;-47
2021/08/07 05:07:52;;;;;;;22.40;14.43;;;;;;;16.26;100.00;100071.69;3620341;39;20463;-51
2021/08/07 05:10:23;;;;;;;21.90;14.87;;;;;;;16.17;100.00;100061.25;3621585;39;20490;-52
2021/08/07 05:12:50;;;;;;;26.30;15.80;;;;;;;16.32;100.00;100068.28;3600486;39;20459;-48
2021/08/07 05:15:18;;;;;;;24.07;16.70;;;;;;;16.39;100.00;100067.47;3622194;39;20552;-51
2021/08/07 05:17:46;;;;;;;21.80;15.03;;;;;;;16.50;100.00;100061.47;3603199;39;20544;-52
2021/08/07 05:20:15;;;;;;;21.40;16.07;;;;;;;16.37;100.00;100055.31;3620090;39;20491;-49
2021/08/07 05:22:42;;;;;;;24.97;16.97;;;;;;;16.36;100.00;100063.97;3619705;39;20471;-51
2021/08/07 05:25:14;;;;;;;26.80;15.13;;;;;;;16.20;100.00;100071.66;3622057;39;20509;-48
2021/08/07 05:27:42;;;;;;;24.07;15.77;;;;;;;16.27;100.00;100072.59;3620867;39;20490;-49
2021/08/07 05:30:11;;;;;;;21.63;15.33;;;;;;;16.30;100.00;100081.28;3621628;39;20511;-49
2021/08/07 05:32:38;;;;;;;22.40;16.03;;;;;;;16.44;100.00;100084.00;3612223;39;20470;-49
2021/08/07 05:35:07;;;;;;;29.67;16.37;;;;;;;16.50;100.00;100077.94;3621984;39;20511;-52
2021/08/07 05:37:38;;;;;;;22.13;15.83;;;;;;;16.52;100.00;100073.66;3617921;39;20459;-51
2021/08/07 05:40:07;;;;;;;24.40;17.90;;;;;;;16.69;100.00;100075.47;3621116;39;20573;-50
2021/08/07 05:42:36;;;;;;;28.60;18.13;;;;;;;16.62;100.00;100076.28;3620112;39;20516;-49
2021/08/07 05:45:04;;;;;;;23.20;17.07;;;;;;;16.64;100.00;100078.03;3594735;39;20494;-49
2021/08/07 05:47:31;;;;;;;26.53;17.80;;;;;;;16.60;100.00;100081.47;3613838;39;20539;-53
2021/08/07 05:49:59;;;;;;;22.50;15.73;;;;;;;16.60;100.00;100084.09;3620847;39;20500;-51
2021/08/07 05:52:28;;;;;;;21.50;15.83;;;;;;;16.52;100.00;100086.66;3614079;39;20564;-52
2021/08/07 05:54:57;;;;;;;24.70;15.73;;;;;;;16.48;100.00;100090.09;3611470;39;20511;-51
2021/08/07 05:57:24;;;;;;;24.57;13.50;;;;;;;16.46;100.00;100097.88;3611251;39;20493;-48
2021/08/07 05:59:53;;;;;;;23.60;15.57;;;;;;;16.69;100.00;100101.50;3610901;39;20500;-50
2021/08/07 06:02:21;;;;;;;21.03;15.87;;;;;;;16.81;100.00;100104.19;3607162;39;20812;-46
2021/08/07 06:04:49;;;;;;;25.10;16.67;;;;;;;16.86;100.00;100092.06;3609610;39;20868;-48
2021/08/07 06:07:17;;;;;;;25.13;16.20;;;;;;;17.00;100.00;100088.63;3609506;39;20475;-51
2021/08/07 06:09:44;;;;;;;27.10;17.57;;;;;;;17.04;100.00;100079.13;3607317;39;20916;-47
2021/08/07 06:12:13;;;;;;;26.83;15.23;;;;;;;16.78;100.00;100066.81;3611072;39;20485;-51
2021/08/07 06:14:40;;;;;;;22.90;15.83;;;;;;;16.88;100.00;100079.91;3611469;39;20509;-50
2021/08/07 06:17:10;;;;;;;21.70;14.87;;;;;;;16.87;100.00;100083.38;3585983;39;20492;-49
2021/08/07 06:19:37;;;;;;;20.03;15.10;;;;;;;16.84;100.00;100078.16;3611568;39;20529;-50
2021/08/07 06:22:05;;;;;;;18.17;15.47;;;;;;;16.93;100.00;100082.56;3598039;39;20488;-50
2021/08/07 06:24:33;;;;;;;22.87;16.83;;;;;;;17.07;100.00;100073.94;3613292;39;20521;-52
2021/08/07 06:27:00;;;;;;;25.70;18.90;;;;;;;17.35;100.00;100074.91;3620687;39;20837;-49
2021/08/07 06:29:28;;;;;;;28.50;17.87;;;;;;;17.56;100.00;100073.22;3621580;39;20523;-47
2021/08/07 06:31:56;;;;;;;22.27;16.33;;;;;;;17.44;100.00;100068.88;3620467;39;20460;-50
2021/08/07 06:34:24;;;;;;;31.33;18.40;;;;;;;17.61;100.00;100068.88;3621620;39;20515;-53
2021/08/07 06:36:52;;;;;;;41.53;27.17;;;;;;;17.86;100.00;100066.31;3620303;39;20488;-47
2021/08/07 06:39:20;;;;;;;29.97;19.50;;;;;;;17.90;100.00;100068.03;3611224;39;20508;-48
2021/08/07 06:41:47;;;;;;;28.20;19.77;;;;;;;18.00;100.00;100068.91;3616924;39;20542;-48
2021/08/07 06:44:15;;;;;;;22.20;14.37;;;;;;;18.11;100.00;100068.97;3620640;39;20742;-49
2021/08/07 06:46:42;;;;;;;25.50;16.27;;;;;;;17.98;100.00;100064.56;3620208;39;20462;-49
2021/08/07 06:49:10;;;;;;;18.70;13.80;;;;;;;17.75;100.00;100074.09;3594134;39;20577;-51
2021/08/07 06:51:39;;;;;;;19.10;14.57;;;;;;;17.76;100.00;100081.09;3611040;39;20680;-52
2021/08/07 06:54:07;;;;;;;17.73;11.93;;;;;;;17.60;100.00;100089.75;3620483;39;20504;-52
2021/08/07 06:56:34;;;;;;;14.83;12.80;;;;;;;17.56;100.00;100094.09;3615067;39;20504;-47
2021/08/07 06:59:02;;;;;;;15.20;10.93;;;;;;;17.13;100.00;100090.47;3593921;39;20508;-50
2021/08/07 07:01:29;;;;;;;16.80;10.80;;;;;;;17.18;100.00;100092.22;3601724;39;20487;-52
2021/08/07 07:03:57;;;;;;;17.00;11.67;;;;;;;17.18;100.00;100093.06;3621379;39;20895;-49
2021/08/07 07:06:25;;;;;;;17.00;10.53;;;;;;;17.27;100.00;100092.25;3599758;39;20505;-48
2021/08/07 07:08:54;;;;;;;15.13;10.77;;;;;;;17.34;100.00;100096.63;3621552;39;20705;-51
2021/08/07 07:11:21;;;;;;;23.17;11.07;;;;;;;17.50;100.00;100094.06;3611361;39;20472;-48
2021/08/07 07:13:49;;;;;;;17.60;10.90;;;;;;;17.47;100.00;100094.03;3610938;39;20531;-51
2021/08/07 07:16:17;;;;;;;13.50;10.20;;;;;;;17.54;100.00;100095.81;3593744;39;20584;-51
2021/08/07 07:18:44;;;;;;;12.97;9.97;;;;;;;17.53;100.00;100086.25;3621262;39;20504;-50
2021/08/07 07:21:12;;;;;;;14.50;10.17;;;;;;;17.49;100.00;100087.13;3620413;39;20497;-50
2021/08/07 07:23:40;;;;;;;32.93;21.40;;;;;;;17.55;100.00;100087.13;3620982;39;20493;-51
2021/08/07 07:26:09;;;;;;;20.57;14.17;;;;;;;17.74;100.00;100088.03;3608691;39;20542;-49
2021/08/07 07:28:36;;;;;;;19.13;12.53;;;;;;;17.81;100.00;100088.91;3594419;39;20535;-51
2021/08/07 07:31:04;;;;;;;27.60;13.97;;;;;;;18.04;100.00;100088.03;3602227;39;20509;-51
2021/08/07 07:33:32;;;;;;;13.30;10.70;;;;;;;18.15;100.00;100088.94;3620290;39;20781;-53
2021/08/07 07:35:59;;;;;;;17.93;9.70;;;;;;;18.37;100.00;100080.22;3620442;39;20501;-51
2021/08/07 07:38:27;;;;;;;13.00;8.93;;;;;;;18.25;100.00;100074.16;3621044;39;20487;-52
2021/08/07 07:40:55;;;;;;;14.30;8.10;;;;;;;18.22;100.00;100074.16;3615629;39;20506;-51
2021/08/07 07:43:25;;;;;;;15.73;8.70;;;;;;;18.39;100.00;100074.16;3620927;39;20515;-53
2021/08/07 07:45:53;;;;;;;11.67;8.77;;;;;;;18.49;100.00;100068.03;3616383;39;20475;-50
2021/08/07 07:48:21;;;;;;;14.40;7.90;;;;;;;18.44;100.00;100082.84;3620156;39;20509;-49
2021/08/07 07:50:48;;;;;;;9.27;7.63;;;;;;;18.29;100.00;100075.91;3612189;39;20478;-50
2021/08/07 07:53:16;;;;;;;11.33;7.30;;;;;;;18.33;100.00;100071.53;3620633;39;20510;-49
2021/08/07 07:55:44;;;;;;;13.57;7.17;;;;;;;18.21;100.00;100067.22;3619525;39;20463;-46
2021/08/07 07:58:11;;;;;;;10.40;8.10;;;;;;;18.16;100.00;100077.63;3593914;39;20498;-49
2021/08/07 08:00:41;;;;;;;10.87;7.57;;;;;;;18.06;100.00;100078.53;3592199;39;20506;-49
2021/08/07 08:03:08;;;;;;;54.17;20.40;;;;;;;18.02;100.00;100080.22;3618817;39;20509;-49
2021/08/07 08:05:37;;;;;;;25.70;11.23;;;;;;;18.05;100.00;100081.97;3613193;39;21015;-51
2021/08/07 08:08:05;;;;;;;60.57;37.13;;;;;;;18.15;100.00;100088.09;3615916;39;20494;-53
2021/08/07 08:10:35;;;;;;;41.63;14.83;;;;;;;18.16;100.00;100080.25;3609181;39;20492;-53
2021/08/07 08:13:03;;;;;;;23.90;14.30;;;;;;;18.31;100.00;100084.59;3619397;39;20528;-53
2021/08/07 08:15:31;;;;;;;22.90;13.30;;;;;;;18.20;100.00;100082.00;3619091;39;20505;-51
2021/08/07 08:18:00;;;;;;;16.40;9.60;;;;;;;18.20;100.00;100082.00;3593655;39;20678;-52
2021/08/07 08:20:28;;;;;;;16.53;11.93;;;;;;;18.33;100.00;100076.75;3601943;39;20538;-47
2021/08/07 08:22:55;;;;;;;23.10;14.80;;;;;;;18.51;100.00;100075.00;3613112;39;20844;-49
2021/08/07 08:25:24;;;;;;;20.40;12.80;;;;;;;18.61;100.00;100068.91;3583661;39;20506;-51
2021/08/07 08:27:52;;;;;;;22.83;13.93;;;;;;;18.85;100.00;100061.84;3615774;39;20483;-53
2021/08/07 08:30:20;;;;;;;22.87;10.60;;;;;;;19.26;100.00;100060.84;3601156;39;20816;-50
2021/08/07 08:32:48;;;;;;;16.27;10.90;;;;;;;19.19;100.00;100058.25;3620333;39;20467;-50
2021/08/07 08:35:17;;;;;;;19.53;11.70;;;;;;;18.94;100.00;100051.38;3620985;39;20511;-51
2021/08/07 08:37:44;;;;;;;18.50;9.30;;;;;;;18.89;100.00;100045.28;3590956;39;20902;-53
2021/08/07 08:40:13;;;;;;;8.60;7.23;;;;;;;19.07;100.00;100035.66;3620775;39;20507;-49
2021/08/07 08:42:41;;;;;;;12.33;7.50;;;;;;;19.02;100.00;100028.69;3591707;39;20851;-51
2021/08/07 08:45:10;;;;;;;8.73;5.50;;;;;;;18.91;100.00;100022.63;3620209;39;20841;-49
2021/08/07 08:47:38;;;;;;;21.23;12.40;;;;;;;18.84;100.00;100010.44;3594221;39;20827;-47
2021/08/07 08:50:07;;;;;;;11.20;7.50;;;;;;;18.92;100.00;100013.88;3621393;39;20736;-50
2021/08/07 08:52:38;;;;;;;9.13;5.50;;;;;;;19.01;100.00;100023.44;3576516;40;20478;-48
2021/08/07 08:55:06;;;;;;;14.27;6.53;;;;;;;19.07;100.00;100033.91;3616833;39;20507;-52
2021/08/07 08:57:35;;;;;;;20.47;10.90;;;;;;;18.73;100.00;100024.41;3600358;39;20519;-48
2021/08/07 09:00:04;;;;;;;14.30;6.10;;;;;;;18.84;100.00;100016.56;3619901;39;20493;-51
2021/08/07 09:02:32;;;;;;;5.70;3.97;;;;;;;18.87;100.00;100020.91;3603093;39;20519;-49
2021/08/07 09:05:00;;;;;;;38.73;20.33;;;;;;;18.86;100.00;100022.63;3595258;39;20494;-48
2021/08/07 09:07:28;;;;;;;21.00;11.87;;;;;;;18.85;100.00;100020.91;3621817;39;20841;-49
2021/08/07 09:09:57;;;;;;;7.13;4.13;;;;;;;18.79;100.00;100017.44;3622179;39;20507;-51
2021/08/07 09:12:39;;;;;;;10.37;5.23;;;;;;;18.92;100.00;100023.50;3580137;40;20503;-49
2021/08/07 09:15:24;;;;;;;13.10;6.90;;;;;;;19.02;100.00;100022.56;3580097;40;20531;-50
2021/08/07 09:17:52;;;;;;;30.07;13.13;;;;;;;18.97;100.00;100038.25;3598783;39;20779;-48
2021/08/07 09:20:27;;;;;;;8.90;5.10;;;;;;;19.01;100.00;100034.78;3583236;40;20497;-47
2021/08/07 09:22:55;;;;;;;9.63;4.47;;;;;;;19.06;100.00;100033.94;3599334;39;20501;-50
2021/08/07 09:25:26;;;;;;;8.20;3.87;;;;;;;19.22;100.00;100027.72;3574658;40;20485;-50
2021/08/07 09:27:54;;;;;;;13.10;7.37;;;;;;;19.55;100.00;100025.75;3599638;39;20450;-50
2021/08/07 09:30:31;;;;;;;12.87;7.53;;;;;;;19.56;100.00;100021.41;3574493;40;20510;-54
2021/08/07 09:33:00;;;;;;;47.00;17.97;;;;;;;19.79;100.00;100015.16;3600000;40;20600;-53
2021/08/07 09:35:29;;;;;;;7.90;3.40;;;;;;;19.84;100.00;100011.59;3598966;40;20515;-51
2021/08/07 09:38:18;;;;;;;8.83;2.67;;;;;;;19.55;100.00;100012.69;3599895;40;20507;-51
2021/08/07 09:40:52;;;;;;;75.00;27.47;;;;;;;19.43;100.00;99997.97;3596911;40;20471;-47
2021/08/07 09:43:23;;;;;;;19.60;6.30;;;;;;;19.71;100.00;99991.66;3604287;39;20582;-47
2021/08/07 09:46:02;;;;;;;27.30;10.20;;;;;;;19.60;100.00;99985.63;3590468;39;20548;-48
2021/08/07 09:48:33;;;;;;;14.23;6.10;;;;;;;19.65;100.00;99991.69;3621440;39;20496;-49
2021/08/07 09:51:14;;;;;;;7.17;2.20;;;;;;;19.99;100.00;99980.09;3620241;39;20483;-48
2021/08/07 09:53:42;;;;;;;28.90;11.73;;;;;;;19.84;100.00;99985.44;3621328;39;20497;-49
2021/08/07 09:56:11;;;;;;;5.10;2.40;;;;;;;19.67;100.00;99992.53;3619814;39;20466;-50
2021/08/07 09:58:38;;;;;;;6.47;2.80;;;;;;;19.72;100.00;99977.69;3594443;39;20512;-49
2021/08/07 10:01:06;;;;;;;8.50;2.60;;;;;;;19.79;100.00;99976.75;3593934;39;20535;-50
2021/08/07 10:03:36;;;;;;;7.27;4.07;;;;;;;20.09;100.00;99980.00;3621871;39;20508;-52
2021/08/07 10:06:20;;;;;;;5.20;3.17;;;;;;;20.01;100.00;99979.22;3618804;39;20725;-50
2021/08/07 10:08:49;;;;;;;5.30;2.53;;;;;;;19.86;100.00;99987.16;3603192;39;20585;-48
2021/08/07 10:11:20;;;;;;;3.80;2.33;;;;;;;19.65;100.00;99986.47;3621108;39;20502;-51
2021/08/07 10:13:48;;;;;;;11.10;4.47;;;;;;;19.65;100.00;99994.31;3621831;39;20536;-50
2021/08/07 10:16:16;;;;;;;5.50;3.10;;;;;;;19.69;100.00;99975.97;3620463;39;20513;-51
2021/08/07 10:18:45;;;;;;;5.60;2.50;;;;;;;19.86;100.00;99981.91;3594649;39;20500;-50
2021/08/07 10:21:13;;;;;;;7.97;2.67;;;;;;;19.87;100.00;99968.84;3594390;39;20863;-49
2021/08/07 10:23:42;;;;;;;6.80;3.23;;;;;;;20.08;100.00;99974.75;3621835;39;20507;-50
2021/08/07 10:26:11;;;;;;;9.57;4.83;;;;;;;20.08;100.00;99973.03;3610834;39;21295;-50
2021/08/07 10:28:43;;;;;;;4.07;2.40;;;;;;;20.59;100.00;99974.22;3621653;39;20565;-50
2021/08/07 10:31:13;;;;;;;9.57;3.77;;;;;;;20.66;100.00;99976.75;3619134;39;20475;-50
2021/08/07 10:33:44;;;;;;;62.70;19.23;;;;;;;20.77;100.00;99967.84;3603440;39;20495;-48
2021/08/07 10:36:12;;;;;;;7.77;3.20;;;;;;;21.02;100.00;99966.72;3615282;39;20462;-49
2021/08/07 10:38:40;;;;;;;7.93;2.80;;;;;;;20.94;100.00;99965.94;3611205;39;20507;-50
2021/08/07 10:41:08;;;;;;;4.73;2.80;;;;;;;20.83;100.00;99960.81;3603543;39;20506;-51
2021/08/07 10:43:37;;;;;;;87.80;21.77;;;;;;;20.92;100.00;99955.50;3621798;39;20511;-48
2021/08/07 10:46:09;;;;;;;8.83;4.60;;;;;;;20.95;100.00;99951.94;3609127;39;20460;-53
2021/08/07 10:48:39;;;;;;;121.70;30.73;;;;;;;20.91;100.00;99952.00;3615570;39;20515;-50
2021/08/07 10:51:36;;;;;;;19.57;6.00;;;;;;;20.97;100.00;99947.56;3617416;39;20543;-51
2021/08/07 10:54:06;;;;;;;16.40;5.67;;;;;;;20.64;100.00;99940.97;3621172;39;20511;-49
2021/08/07 10:56:40;;;;;;;7.73;3.90;;;;;;;20.50;100.00;99953.34;3619614;39;20474;-50
2021/08/07 10:59:25;;;;;;;8.03;3.37;;;;;;;21.05;100.00;99945.69;3621265;39;20494;-50
2021/08/07 11:01:55;;;;;;;30.97;8.20;;;;;;;21.43;100.00;99935.50;3617940;39;20692;-49
2021/08/07 11:04:26;;;;;;;76.97;25.57;;;;;;;21.61;100.00;99929.06;3594488;39;20492;-49
2021/08/07 11:07:02;;;;;;;17.93;7.30;;;;;;;21.53;100.00;99921.31;3619135;39;20464;-50
2021/08/07 11:09:32;;;;;;;10.90;4.90;;;;;;;21.49;100.00;99927.53;3621114;39;20507;-52
2021/08/07 11:12:18;;;;;;;7.57;3.57;;;;;;;21.36;100.00;99921.59;3618411;39;20475;-50
2021/08/07 11:14:51;;;;;;;5.53;3.13;;;;;;;21.36;100.00;99913.72;3621342;39;20515;-52